sensor_id;sensor_type;location;lat;lon;timestamp;P1;durP1;ratioP1;P2;durP2;ratioP2
59930;SDS011;45790;51.538;6.736;2023-05-10T00:00:55;10.68;;;8.10;;
59930;SDS011;45790;51.538;6.736;2023-05-10T00:03:21;11.07;;;7.32;;
59930;SDS011;45790;51.538;6.736;2023-05-10T00:05:46;11.68;;;8.05;;
59930;SDS011;45790;51.538;6.736;2023-05-10T00:08:12;11.25;;;7.68;;
59930;SDS011;45790;51.538;6.736;2023-05-10T00:10:37;16.40;;;7.43;;
59930;SDS011;45790;51.538;6.736;2023-05-10T00:13:02;11.48;;;8.35;;
59930;SDS011;45790;51.538;6.736;2023-05-10T00:15:28;13.18;;;8.05;;
59930;SDS011;45790;51.538;6.736;2023-05-10T00:17:55;12.63;;;8.70;;
59930;SDS011;45790;51.538;6.736;2023-05-10T00:20:21;12.13;;;9.02;;
59930;SDS011;45790;51.538;6.736;2023-05-10T00:22:46;14.65;;;10.20;;
59930;SDS011;45790;51.538;6.736;2023-05-10T00:25:11;12.73;;;9.73;;
59930;SDS011;45790;51.538;6.736;2023-05-10T00:27:36;12.50;;;9.90;;
59930;SDS011;45790;51.538;6.736;2023-05-10T00:30:02;13.63;;;10.05;;
59930;SDS011;45790;51.538;6.736;2023-05-10T00:32:27;13.63;;;10.25;;
59930;SDS011;45790;51.538;6.736;2023-05-10T00:34:52;13.23;;;9.73;;
59930;SDS011;45790;51.538;6.736;2023-05-10T00:37:18;14.82;;;10.38;;
59930;SDS011;45790;51.538;6.736;2023-05-10T00:39:43;14.48;;;9.55;;
59930;SDS011;45790;51.538;6.736;2023-05-10T00:42:08;12.68;;;10.00;;
59930;SDS011;45790;51.538;6.736;2023-05-10T00:44:33;16.75;;;10.27;;
59930;SDS011;45790;51.538;6.736;2023-05-10T00:46:58;14.07;;;10.48;;
59930;SDS011;45790;51.538;6.736;2023-05-10T00:49:24;13.73;;;9.60;;
59930;SDS011;45790;51.538;6.736;2023-05-10T00:51:50;13.30;;;9.93;;
59930;SDS011;45790;51.538;6.736;2023-05-10T00:54:15;16.42;;;10.30;;
59930;SDS011;45790;51.538;6.736;2023-05-10T00:56:40;15.75;;;11.32;;
59930;SDS011;45790;51.538;6.736;2023-05-10T00:59:07;15.90;;;10.55;;
59930;SDS011;45790;51.538;6.736;2023-05-10T01:01:33;17.38;;;11.38;;
59930;SDS011;45790;51.538;6.736;2023-05-10T01:03:58;16.27;;;11.15;;
59930;SDS011;45790;51.538;6.736;2023-05-10T01:06:24;17.85;;;11.60;;
59930;SDS011;45790;51.538;6.736;2023-05-10T01:08:49;14.05;;;10.93;;
59930;SDS011;45790;51.538;6.736;2023-05-10T01:11:15;15.48;;;12.05;;
59930;SDS011;45790;51.538;6.736;2023-05-10T01:13:41;17.30;;;11.88;;
59930;SDS011;45790;51.538;6.736;2023-05-10T01:16:07;16.48;;;12.07;;
59930;SDS011;45790;51.538;6.736;2023-05-10T01:18:33;16.98;;;12.20;;
59930;SDS011;45790;51.538;6.736;2023-05-10T01:21:06;17.15;;;12.30;;
59930;SDS011;45790;51.538;6.736;2023-05-10T01:23:44;19.35;;;12.43;;
59930;SDS011;45790;51.538;6.736;2023-05-10T01:31:29;15.68;;;12.02;;
59930;SDS011;45790;51.538;6.736;2023-05-10T01:33:57;19.10;;;11.37;;
59930;SDS011;45790;51.538;6.736;2023-05-10T01:46:17;14.47;;;10.70;;
59930;SDS011;45790;51.538;6.736;2023-05-10T01:48:48;13.80;;;10.15;;
59930;SDS011;45790;51.538;6.736;2023-05-10T01:51:16;13.95;;;10.40;;
59930;SDS011;45790;51.538;6.736;2023-05-10T01:53:42;13.93;;;10.57;;
59930;SDS011;45790;51.538;6.736;2023-05-10T01:56:08;15.88;;;10.50;;
59930;SDS011;45790;51.538;6.736;2023-05-10T01:58:34;15.23;;;10.45;;
59930;SDS011;45790;51.538;6.736;2023-05-10T02:01:01;17.75;;;11.20;;
59930;SDS011;45790;51.538;6.736;2023-05-10T02:03:28;15.57;;;11.02;;
59930;SDS011;45790;51.538;6.736;2023-05-10T02:05:54;17.85;;;11.93;;
59930;SDS011;45790;51.538;6.736;2023-05-10T02:08:20;17.92;;;11.88;;
59930;SDS011;45790;51.538;6.736;2023-05-10T02:10:46;16.80;;;11.38;;
59930;SDS011;45790;51.538;6.736;2023-05-10T02:13:11;15.70;;;11.38;;
59930;SDS011;45790;51.538;6.736;2023-05-10T02:15:37;20.90;;;12.18;;
59930;SDS011;45790;51.538;6.736;2023-05-10T02:18:04;17.35;;;11.55;;
59930;SDS011;45790;51.538;6.736;2023-05-10T02:20:30;20.52;;;12.02;;
59930;SDS011;45790;51.538;6.736;2023-05-10T02:22:56;18.58;;;12.38;;
59930;SDS011;45790;51.538;6.736;2023-05-10T02:25:23;17.73;;;12.20;;
59930;SDS011;45790;51.538;6.736;2023-05-10T02:27:48;17.13;;;12.38;;
59930;SDS011;45790;51.538;6.736;2023-05-10T02:30:15;17.52;;;12.68;;
59930;SDS011;45790;51.538;6.736;2023-05-10T02:32:40;18.55;;;12.27;;
59930;SDS011;45790;51.538;6.736;2023-05-10T02:35:06;16.35;;;11.95;;
59930;SDS011;45790;51.538;6.736;2023-05-10T02:37:32;17.58;;;11.55;;
59930;SDS011;45790;51.538;6.736;2023-05-10T02:39:58;18.17;;;12.75;;
59930;SDS011;45790;51.538;6.736;2023-05-10T02:42:24;18.67;;;12.68;;
59930;SDS011;45790;51.538;6.736;2023-05-10T02:44:50;16.65;;;12.23;;
59930;SDS011;45790;51.538;6.736;2023-05-10T02:47:16;17.98;;;12.85;;
59930;SDS011;45790;51.538;6.736;2023-05-10T02:49:41;18.38;;;12.60;;
59930;SDS011;45790;51.538;6.736;2023-05-10T02:52:07;16.98;;;12.10;;
59930;SDS011;45790;51.538;6.736;2023-05-10T02:54:35;18.48;;;12.35;;
59930;SDS011;45790;51.538;6.736;2023-05-10T02:57:04;20.85;;;13.45;;
59930;SDS011;45790;51.538;6.736;2023-05-10T02:59:30;18.85;;;13.02;;
59930;SDS011;45790;51.538;6.736;2023-05-10T03:01:56;19.67;;;13.60;;
59930;SDS011;45790;51.538;6.736;2023-05-10T03:04:21;19.70;;;13.00;;
59930;SDS011;45790;51.538;6.736;2023-05-10T03:06:46;19.42;;;13.35;;
59930;SDS011;45790;51.538;6.736;2023-05-10T03:09:11;19.00;;;13.15;;
59930;SDS011;45790;51.538;6.736;2023-05-10T03:11:48;19.08;;;12.77;;
59930;SDS011;45790;51.538;6.736;2023-05-10T03:14:32;18.70;;;11.95;;
59930;SDS011;45790;51.538;6.736;2023-05-10T03:19:43;21.60;;;14.20;;
59930;SDS011;45790;51.538;6.736;2023-05-10T03:22:10;20.13;;;13.20;;
59930;SDS011;45790;51.538;6.736;2023-05-10T03:24:35;21.77;;;13.30;;
59930;SDS011;45790;51.538;6.736;2023-05-10T03:27:01;18.88;;;13.27;;
59930;SDS011;45790;51.538;6.736;2023-05-10T03:29:30;17.75;;;12.68;;
59930;SDS011;45790;51.538;6.736;2023-05-10T03:31:57;20.13;;;13.95;;
59930;SDS011;45790;51.538;6.736;2023-05-10T03:34:23;19.55;;;14.10;;
59930;SDS011;45790;51.538;6.736;2023-05-10T03:36:48;23.48;;;14.65;;
59930;SDS011;45790;51.538;6.736;2023-05-10T03:39:14;23.70;;;15.32;;
59930;SDS011;45790;51.538;6.736;2023-05-10T03:41:39;22.00;;;14.30;;
59930;SDS011;45790;51.538;6.736;2023-05-10T03:44:05;22.85;;;14.50;;
59930;SDS011;45790;51.538;6.736;2023-05-10T03:46:30;21.05;;;14.00;;
59930;SDS011;45790;51.538;6.736;2023-05-10T03:48:55;23.00;;;14.87;;
59930;SDS011;45790;51.538;6.736;2023-05-10T03:51:20;24.73;;;14.95;;
59930;SDS011;45790;51.538;6.736;2023-05-10T03:53:45;22.42;;;14.80;;
59930;SDS011;45790;51.538;6.736;2023-05-10T03:56:11;24.10;;;15.40;;
59930;SDS011;45790;51.538;6.736;2023-05-10T03:58:36;29.67;;;15.60;;
59930;SDS011;45790;51.538;6.736;2023-05-10T04:01:01;22.13;;;14.27;;
59930;SDS011;45790;51.538;6.736;2023-05-10T04:03:27;24.80;;;15.55;;
59930;SDS011;45790;51.538;6.736;2023-05-10T04:06:01;24.05;;;16.02;;
59930;SDS011;45790;51.538;6.736;2023-05-10T04:08:27;22.08;;;14.68;;
59930;SDS011;45790;51.538;6.736;2023-05-10T04:10:52;25.63;;;15.73;;
59930;SDS011;45790;51.538;6.736;2023-05-10T04:13:17;26.23;;;16.48;;
59930;SDS011;45790;51.538;6.736;2023-05-10T04:15:42;24.05;;;16.10;;
59930;SDS011;45790;51.538;6.736;2023-05-10T04:18:08;27.02;;;17.38;;
59930;SDS011;45790;51.538;6.736;2023-05-10T04:20:33;25.45;;;15.98;;
59930;SDS011;45790;51.538;6.736;2023-05-10T04:22:59;26.50;;;16.90;;
59930;SDS011;45790;51.538;6.736;2023-05-10T04:25:24;31.52;;;17.15;;
59930;SDS011;45790;51.538;6.736;2023-05-10T04:27:49;26.15;;;17.70;;
59930;SDS011;45790;51.538;6.736;2023-05-10T04:30:14;25.77;;;17.03;;
59930;SDS011;45790;51.538;6.736;2023-05-10T04:32:40;27.02;;;18.27;;
59930;SDS011;45790;51.538;6.736;2023-05-10T04:35:05;28.85;;;17.65;;
59930;SDS011;45790;51.538;6.736;2023-05-10T04:37:30;27.20;;;17.58;;
59930;SDS011;45790;51.538;6.736;2023-05-10T04:39:55;32.50;;;18.67;;
59930;SDS011;45790;51.538;6.736;2023-05-10T04:42:21;31.83;;;19.42;;
59930;SDS011;45790;51.538;6.736;2023-05-10T04:44:46;33.35;;;19.30;;
59930;SDS011;45790;51.538;6.736;2023-05-10T04:47:11;30.42;;;19.67;;
59930;SDS011;45790;51.538;6.736;2023-05-10T04:49:38;32.97;;;20.40;;
59930;SDS011;45790;51.538;6.736;2023-05-10T04:52:03;30.55;;;19.65;;
59930;SDS011;45790;51.538;6.736;2023-05-10T04:54:28;35.70;;;20.25;;
59930;SDS011;45790;51.538;6.736;2023-05-10T04:56:53;33.85;;;21.02;;
59930;SDS011;45790;51.538;6.736;2023-05-10T04:59:19;35.83;;;21.33;;
59930;SDS011;45790;51.538;6.736;2023-05-10T05:01:44;34.60;;;21.48;;
59930;SDS011;45790;51.538;6.736;2023-05-10T05:04:09;30.50;;;20.55;;
59930;SDS011;45790;51.538;6.736;2023-05-10T05:06:34;32.10;;;19.85;;
59930;SDS011;45790;51.538;6.736;2023-05-10T05:09:00;34.90;;;19.70;;
59930;SDS011;45790;51.538;6.736;2023-05-10T05:11:25;32.70;;;20.60;;
59930;SDS011;45790;51.538;6.736;2023-05-10T05:13:50;31.60;;;19.65;;
59930;SDS011;45790;51.538;6.736;2023-05-10T05:16:16;32.08;;;21.38;;
59930;SDS011;45790;51.538;6.736;2023-05-10T05:18:41;35.00;;;22.67;;
59930;SDS011;45790;51.538;6.736;2023-05-10T05:21:13;35.47;;;22.33;;
59930;SDS011;45790;51.538;6.736;2023-05-10T05:23:38;37.50;;;22.10;;
59930;SDS011;45790;51.538;6.736;2023-05-10T05:26:04;40.83;;;23.33;;
59930;SDS011;45790;51.538;6.736;2023-05-10T05:28:29;37.75;;;22.17;;
59930;SDS011;45790;51.538;6.736;2023-05-10T05:30:57;33.53;;;22.85;;
59930;SDS011;45790;51.538;6.736;2023-05-10T05:33:23;36.72;;;23.33;;
59930;SDS011;45790;51.538;6.736;2023-05-10T05:35:48;38.03;;;23.02;;
59930;SDS011;45790;51.538;6.736;2023-05-10T05:38:15;34.17;;;23.05;;
59930;SDS011;45790;51.538;6.736;2023-05-10T05:40:41;39.35;;;24.15;;
59930;SDS011;45790;51.538;6.736;2023-05-10T05:43:06;36.42;;;22.30;;
59930;SDS011;45790;51.538;6.736;2023-05-10T05:45:31;40.27;;;24.53;;
59930;SDS011;45790;51.538;6.736;2023-05-10T05:47:56;39.58;;;24.17;;
59930;SDS011;45790;51.538;6.736;2023-05-10T05:50:21;34.72;;;23.73;;
59930;SDS011;45790;51.538;6.736;2023-05-10T05:52:47;37.27;;;23.83;;
59930;SDS011;45790;51.538;6.736;2023-05-10T05:55:12;37.88;;;24.20;;
59930;SDS011;45790;51.538;6.736;2023-05-10T05:57:37;40.28;;;24.95;;
59930;SDS011;45790;51.538;6.736;2023-05-10T06:00:03;37.58;;;22.73;;
59930;SDS011;45790;51.538;6.736;2023-05-10T06:02:29;39.22;;;23.63;;
59930;SDS011;45790;51.538;6.736;2023-05-10T06:04:54;40.03;;;24.33;;
59930;SDS011;45790;51.538;6.736;2023-05-10T06:07:19;37.05;;;24.13;;
59930;SDS011;45790;51.538;6.736;2023-05-10T06:09:45;39.50;;;24.33;;
59930;SDS011;45790;51.538;6.736;2023-05-10T06:12:10;37.83;;;23.77;;
59930;SDS011;45790;51.538;6.736;2023-05-10T06:14:36;40.25;;;26.27;;
59930;SDS011;45790;51.538;6.736;2023-05-10T06:17:01;41.60;;;25.10;;
59930;SDS011;45790;51.538;6.736;2023-05-10T06:19:28;38.83;;;24.33;;
59930;SDS011;45790;51.538;6.736;2023-05-10T06:21:54;36.70;;;24.23;;
59930;SDS011;45790;51.538;6.736;2023-05-10T06:24:19;43.10;;;24.83;;
59930;SDS011;45790;51.538;6.736;2023-05-10T06:26:44;37.28;;;24.02;;
59930;SDS011;45790;51.538;6.736;2023-05-10T06:29:10;35.50;;;23.77;;
59930;SDS011;45790;51.538;6.736;2023-05-10T06:31:35;37.15;;;24.15;;
59930;SDS011;45790;51.538;6.736;2023-05-10T06:34:00;32.93;;;22.83;;
59930;SDS011;45790;51.538;6.736;2023-05-10T06:36:25;40.13;;;23.52;;
59930;SDS011;45790;51.538;6.736;2023-05-10T06:38:52;45.17;;;24.75;;
59930;SDS011;45790;51.538;6.736;2023-05-10T06:41:17;41.30;;;25.00;;
59930;SDS011;45790;51.538;6.736;2023-05-10T06:43:42;52.05;;;25.60;;
59930;SDS011;45790;51.538;6.736;2023-05-10T06:46:08;47.08;;;24.70;;
59930;SDS011;45790;51.538;6.736;2023-05-10T06:48:33;39.03;;;24.40;;
59930;SDS011;45790;51.538;6.736;2023-05-10T06:50:59;41.10;;;24.63;;
59930;SDS011;45790;51.538;6.736;2023-05-10T06:53:24;36.63;;;25.03;;
59930;SDS011;45790;51.538;6.736;2023-05-10T06:55:49;46.33;;;27.15;;
59930;SDS011;45790;51.538;6.736;2023-05-10T06:58:14;40.38;;;26.27;;
59930;SDS011;45790;51.538;6.736;2023-05-10T07:00:39;40.00;;;24.65;;
59930;SDS011;45790;51.538;6.736;2023-05-10T07:03:07;39.75;;;23.83;;
59930;SDS011;45790;51.538;6.736;2023-05-10T07:05:32;41.88;;;25.00;;
59930;SDS011;45790;51.538;6.736;2023-05-10T07:07:58;38.13;;;23.95;;
59930;SDS011;45790;51.538;6.736;2023-05-10T07:10:23;41.83;;;25.50;;
59930;SDS011;45790;51.538;6.736;2023-05-10T07:12:48;44.10;;;24.73;;
59930;SDS011;45790;51.538;6.736;2023-05-10T07:15:13;39.73;;;24.30;;
59930;SDS011;45790;51.538;6.736;2023-05-10T07:17:40;42.83;;;25.88;;
59930;SDS011;45790;51.538;6.736;2023-05-10T07:20:06;41.60;;;25.23;;
59930;SDS011;45790;51.538;6.736;2023-05-10T07:22:31;39.88;;;24.00;;
59930;SDS011;45790;51.538;6.736;2023-05-10T07:24:57;42.60;;;25.80;;
59930;SDS011;45790;51.538;6.736;2023-05-10T07:27:22;45.77;;;26.30;;
59930;SDS011;45790;51.538;6.736;2023-05-10T07:29:47;40.85;;;25.15;;
59930;SDS011;45790;51.538;6.736;2023-05-10T07:32:12;39.28;;;23.88;;
59930;SDS011;45790;51.538;6.736;2023-05-10T07:34:37;41.17;;;24.38;;
59930;SDS011;45790;51.538;6.736;2023-05-10T07:37:03;41.78;;;23.58;;
59930;SDS011;45790;51.538;6.736;2023-05-10T07:39:28;42.03;;;24.40;;
59930;SDS011;45790;51.538;6.736;2023-05-10T07:41:54;40.60;;;23.60;;
59930;SDS011;45790;51.538;6.736;2023-05-10T07:44:19;39.90;;;22.55;;
59930;SDS011;45790;51.538;6.736;2023-05-10T07:46:45;33.63;;;21.45;;
59930;SDS011;45790;51.538;6.736;2023-05-10T07:49:10;34.38;;;20.98;;
59930;SDS011;45790;51.538;6.736;2023-05-10T07:51:35;36.90;;;21.15;;
59930;SDS011;45790;51.538;6.736;2023-05-10T07:54:01;33.53;;;20.57;;
59930;SDS011;45790;51.538;6.736;2023-05-10T07:56:28;33.50;;;20.73;;
59930;SDS011;45790;51.538;6.736;2023-05-10T07:59:00;36.70;;;21.20;;
59930;SDS011;45790;51.538;6.736;2023-05-10T08:01:26;38.30;;;21.02;;
59930;SDS011;45790;51.538;6.736;2023-05-10T08:03:52;39.53;;;21.90;;
59930;SDS011;45790;51.538;6.736;2023-05-10T08:06:18;41.60;;;21.60;;
59930;SDS011;45790;51.538;6.736;2023-05-10T08:08:45;36.35;;;21.92;;
59930;SDS011;45790;51.538;6.736;2023-05-10T08:11:14;38.22;;;22.50;;
59930;SDS011;45790;51.538;6.736;2023-05-10T08:13:39;40.03;;;22.02;;
59930;SDS011;45790;51.538;6.736;2023-05-10T08:16:07;40.03;;;21.92;;
59930;SDS011;45790;51.538;6.736;2023-05-10T08:18:32;46.20;;;23.58;;
59930;SDS011;45790;51.538;6.736;2023-05-10T08:20:57;40.17;;;22.58;;
59930;SDS011;45790;51.538;6.736;2023-05-10T08:23:23;47.95;;;22.48;;
59930;SDS011;45790;51.538;6.736;2023-05-10T08:25:48;38.58;;;21.52;;
59930;SDS011;45790;51.538;6.736;2023-05-10T08:28:13;34.53;;;18.85;;
59930;SDS011;45790;51.538;6.736;2023-05-10T08:30:38;31.92;;;18.08;;
59930;SDS011;45790;51.538;6.736;2023-05-10T08:33:04;33.13;;;18.73;;
59930;SDS011;45790;51.538;6.736;2023-05-10T08:35:29;29.08;;;17.55;;
59930;SDS011;45790;51.538;6.736;2023-05-10T08:37:54;28.52;;;17.67;;
59930;SDS011;45790;51.538;6.736;2023-05-10T08:40:20;28.35;;;18.02;;
59930;SDS011;45790;51.538;6.736;2023-05-10T08:42:48;27.17;;;18.00;;
59930;SDS011;45790;51.538;6.736;2023-05-10T08:45:16;28.30;;;16.77;;
59930;SDS011;45790;51.538;6.736;2023-05-10T08:47:42;28.58;;;16.75;;
59930;SDS011;45790;51.538;6.736;2023-05-10T08:50:08;29.08;;;16.58;;
59930;SDS011;45790;51.538;6.736;2023-05-10T08:52:35;25.25;;;16.08;;
59930;SDS011;45790;51.538;6.736;2023-05-10T08:55:03;23.58;;;16.25;;
59930;SDS011;45790;51.538;6.736;2023-05-10T08:57:28;28.63;;;17.00;;
59930;SDS011;45790;51.538;6.736;2023-05-10T08:59:54;26.45;;;16.65;;
59930;SDS011;45790;51.538;6.736;2023-05-10T09:02:19;26.17;;;16.67;;
59930;SDS011;45790;51.538;6.736;2023-05-10T09:04:45;25.90;;;16.48;;
59930;SDS011;45790;51.538;6.736;2023-05-10T09:07:10;26.95;;;16.20;;
59930;SDS011;45790;51.538;6.736;2023-05-10T09:09:36;23.15;;;15.55;;
59930;SDS011;45790;51.538;6.736;2023-05-10T09:12:01;22.90;;;15.10;;
59930;SDS011;45790;51.538;6.736;2023-05-10T09:14:26;21.52;;;15.18;;
59930;SDS011;45790;51.538;6.736;2023-05-10T09:16:52;20.05;;;14.77;;
59930;SDS011;45790;51.538;6.736;2023-05-10T09:19:19;23.10;;;14.63;;
59930;SDS011;45790;51.538;6.736;2023-05-10T09:21:44;23.25;;;15.02;;
59930;SDS011;45790;51.538;6.736;2023-05-10T09:24:09;21.65;;;14.57;;
59930;SDS011;45790;51.538;6.736;2023-05-10T09:26:35;22.13;;;14.32;;
59930;SDS011;45790;51.538;6.736;2023-05-10T09:29:01;18.85;;;14.02;;
59930;SDS011;45790;51.538;6.736;2023-05-10T09:34:31;23.17;;;14.93;;
59930;SDS011;45790;51.538;6.736;2023-05-10T09:36:58;24.38;;;14.57;;
59930;SDS011;45790;51.538;6.736;2023-05-10T09:39:32;20.42;;;14.63;;
59930;SDS011;45790;51.538;6.736;2023-05-10T09:41:58;20.42;;;14.02;;
59930;SDS011;45790;51.538;6.736;2023-05-10T09:44:23;19.90;;;13.73;;
59930;SDS011;45790;51.538;6.736;2023-05-10T09:46:50;21.20;;;12.50;;
59930;SDS011;45790;51.538;6.736;2023-05-10T09:49:16;23.13;;;14.23;;
59930;SDS011;45790;51.538;6.736;2023-05-10T09:51:41;20.70;;;13.37;;
59930;SDS011;45790;51.538;6.736;2023-05-10T09:54:10;22.10;;;14.10;;
59930;SDS011;45790;51.538;6.736;2023-05-10T09:56:36;20.75;;;13.50;;
59930;SDS011;45790;51.538;6.736;2023-05-10T09:59:04;21.52;;;13.75;;
59930;SDS011;45790;51.538;6.736;2023-05-10T10:01:29;19.95;;;13.70;;
59930;SDS011;45790;51.538;6.736;2023-05-10T10:03:55;25.70;;;14.40;;
59930;SDS011;45790;51.538;6.736;2023-05-10T10:06:22;22.92;;;15.18;;
59930;SDS011;45790;51.538;6.736;2023-05-10T10:08:48;19.92;;;14.18;;
59930;SDS011;45790;51.538;6.736;2023-05-10T10:11:13;22.00;;;14.85;;
59930;SDS011;45790;51.538;6.736;2023-05-10T10:13:38;21.88;;;14.88;;
59930;SDS011;45790;51.538;6.736;2023-05-10T10:16:03;21.47;;;13.33;;
59930;SDS011;45790;51.538;6.736;2023-05-10T10:18:30;19.92;;;13.55;;
59930;SDS011;45790;51.538;6.736;2023-05-10T10:20:55;20.15;;;13.98;;
59930;SDS011;45790;51.538;6.736;2023-05-10T10:23:21;23.60;;;13.20;;
59930;SDS011;45790;51.538;6.736;2023-05-10T10:25:46;22.95;;;13.57;;
59930;SDS011;45790;51.538;6.736;2023-05-10T10:31:14;19.73;;;13.35;;
59930;SDS011;45790;51.538;6.736;2023-05-10T10:36:07;23.55;;;13.85;;
59930;SDS011;45790;51.538;6.736;2023-05-10T10:41:10;19.92;;;13.63;;
59930;SDS011;45790;51.538;6.736;2023-05-10T10:43:46;20.45;;;13.50;;
59930;SDS011;45790;51.538;6.736;2023-05-10T10:48:40;20.95;;;13.23;;
59930;SDS011;45790;51.538;6.736;2023-05-10T10:51:06;20.35;;;13.52;;
59930;SDS011;45790;51.538;6.736;2023-05-10T10:53:31;20.15;;;13.18;;
59930;SDS011;45790;51.538;6.736;2023-05-10T10:58:32;21.90;;;15.02;;
59930;SDS011;45790;51.538;6.736;2023-05-10T11:03:35;24.80;;;14.38;;
59930;SDS011;45790;51.538;6.736;2023-05-10T11:06:01;23.42;;;14.30;;
59930;SDS011;45790;51.538;6.736;2023-05-10T11:08:28;19.67;;;13.20;;
59930;SDS011;45790;51.538;6.736;2023-05-10T11:16:09;20.27;;;13.25;;
59930;SDS011;45790;51.538;6.736;2023-05-10T11:18:36;19.70;;;14.00;;
59930;SDS011;45790;51.538;6.736;2023-05-10T11:21:01;22.13;;;14.23;;
59930;SDS011;45790;51.538;6.736;2023-05-10T11:26:08;21.50;;;15.40;;
59930;SDS011;45790;51.538;6.736;2023-05-10T11:28:34;18.52;;;14.20;;
59930;SDS011;45790;51.538;6.736;2023-05-10T11:31:00;21.33;;;14.77;;
59930;SDS011;45790;51.538;6.736;2023-05-10T11:33:25;23.35;;;14.32;;
59930;SDS011;45790;51.538;6.736;2023-05-10T11:35:50;22.33;;;14.30;;
59930;SDS011;45790;51.538;6.736;2023-05-10T11:38:15;16.23;;;12.80;;
59930;SDS011;45790;51.538;6.736;2023-05-10T11:40:41;16.25;;;13.00;;
59930;SDS011;45790;51.538;6.736;2023-05-10T11:43:07;22.15;;;13.32;;
59930;SDS011;45790;51.538;6.736;2023-05-10T11:45:33;17.02;;;12.27;;
59930;SDS011;45790;51.538;6.736;2023-05-10T11:47:58;17.08;;;12.85;;
59930;SDS011;45790;51.538;6.736;2023-05-10T11:50:24;18.13;;;11.93;;
59930;SDS011;45790;51.538;6.736;2023-05-10T11:52:54;20.02;;;11.52;;
59930;SDS011;45790;51.538;6.736;2023-05-10T11:55:20;15.43;;;10.85;;
59930;SDS011;45790;51.538;6.736;2023-05-10T11:57:45;16.08;;;10.80;;
59930;SDS011;45790;51.538;6.736;2023-05-10T12:00:11;16.85;;;10.25;;
59930;SDS011;45790;51.538;6.736;2023-05-10T12:02:36;15.43;;;10.52;;
59930;SDS011;45790;51.538;6.736;2023-05-10T12:05:02;13.10;;;9.40;;
59930;SDS011;45790;51.538;6.736;2023-05-10T12:07:28;12.55;;;9.07;;
59930;SDS011;45790;51.538;6.736;2023-05-10T12:10:06;13.32;;;9.30;;
59930;SDS011;45790;51.538;6.736;2023-05-10T12:12:39;10.48;;;8.13;;
59930;SDS011;45790;51.538;6.736;2023-05-10T12:15:05;15.80;;;8.77;;
59930;SDS011;45790;51.538;6.736;2023-05-10T12:17:31;14.48;;;8.88;;
59930;SDS011;45790;51.538;6.736;2023-05-10T12:22:43;9.57;;;7.40;;
59930;SDS011;45790;51.538;6.736;2023-05-10T12:25:08;11.20;;;7.53;;
59930;SDS011;45790;51.538;6.736;2023-05-10T12:27:34;13.93;;;7.13;;
59930;SDS011;45790;51.538;6.736;2023-05-10T12:29:59;16.73;;;6.63;;
59930;SDS011;45790;51.538;6.736;2023-05-10T12:32:40;10.82;;;6.60;;
59930;SDS011;45790;51.538;6.736;2023-05-10T12:35:06;9.55;;;5.90;;
59930;SDS011;45790;51.538;6.736;2023-05-10T12:37:31;9.93;;;5.63;;
59930;SDS011;45790;51.538;6.736;2023-05-10T12:40:00;11.15;;;6.10;;
59930;SDS011;45790;51.538;6.736;2023-05-10T12:42:25;10.63;;;5.70;;
59930;SDS011;45790;51.538;6.736;2023-05-10T12:44:54;10.02;;;5.20;;
59930;SDS011;45790;51.538;6.736;2023-05-10T12:47:19;8.77;;;5.47;;
59930;SDS011;45790;51.538;6.736;2023-05-10T12:49:45;8.63;;;5.20;;
59930;SDS011;45790;51.538;6.736;2023-05-10T12:52:10;9.52;;;5.07;;
59930;SDS011;45790;51.538;6.736;2023-05-10T12:54:35;7.15;;;4.60;;
59930;SDS011;45790;51.538;6.736;2023-05-10T12:57:00;7.28;;;4.75;;
59930;SDS011;45790;51.538;6.736;2023-05-10T12:59:26;10.05;;;5.40;;
59930;SDS011;45790;51.538;6.736;2023-05-10T13:01:51;14.63;;;5.80;;
59930;SDS011;45790;51.538;6.736;2023-05-10T13:04:16;12.48;;;5.75;;
59930;SDS011;45790;51.538;6.736;2023-05-10T13:06:41;12.90;;;6.00;;
59930;SDS011;45790;51.538;6.736;2023-05-10T13:09:07;9.45;;;5.70;;
59930;SDS011;45790;51.538;6.736;2023-05-10T13:11:32;10.68;;;5.47;;
59930;SDS011;45790;51.538;6.736;2023-05-10T13:13:58;7.88;;;5.30;;
59930;SDS011;45790;51.538;6.736;2023-05-10T13:16:23;13.05;;;5.95;;
59930;SDS011;45790;51.538;6.736;2023-05-10T13:18:48;12.43;;;5.33;;
59930;SDS011;45790;51.538;6.736;2023-05-10T13:21:16;8.52;;;5.25;;
59930;SDS011;45790;51.538;6.736;2023-05-10T13:23:42;9.18;;;5.50;;
59930;SDS011;45790;51.538;6.736;2023-05-10T13:26:07;9.75;;;5.28;;
59930;SDS011;45790;51.538;6.736;2023-05-10T13:28:32;9.00;;;5.60;;
59930;SDS011;45790;51.538;6.736;2023-05-10T13:30:57;9.00;;;6.05;;
59930;SDS011;45790;51.538;6.736;2023-05-10T13:33:24;10.95;;;5.20;;
59930;SDS011;45790;51.538;6.736;2023-05-10T13:35:59;7.57;;;5.10;;
59930;SDS011;45790;51.538;6.736;2023-05-10T13:38:24;8.27;;;5.22;;
59930;SDS011;45790;51.538;6.736;2023-05-10T13:41:08;16.52;;;5.07;;
59930;SDS011;45790;51.538;6.736;2023-05-10T13:43:36;11.23;;;5.13;;
59930;SDS011;45790;51.538;6.736;2023-05-10T13:46:01;7.45;;;5.13;;
59930;SDS011;45790;51.538;6.736;2023-05-10T13:48:35;11.30;;;5.18;;
59930;SDS011;45790;51.538;6.736;2023-05-10T13:51:06;7.57;;;5.28;;
59930;SDS011;45790;51.538;6.736;2023-05-10T13:53:34;8.82;;;5.10;;
59930;SDS011;45790;51.538;6.736;2023-05-10T13:56:00;7.10;;;4.40;;
59930;SDS011;45790;51.538;6.736;2023-05-10T13:58:26;8.05;;;4.47;;
59930;SDS011;45790;51.538;6.736;2023-05-10T14:00:55;9.90;;;4.40;;
59930;SDS011;45790;51.538;6.736;2023-05-10T14:03:42;7.78;;;4.97;;
59930;SDS011;45790;51.538;6.736;2023-05-10T14:06:10;6.47;;;4.15;;
59930;SDS011;45790;51.538;6.736;2023-05-10T14:08:39;6.28;;;4.25;;
59930;SDS011;45790;51.538;6.736;2023-05-10T14:11:08;10.77;;;4.38;;
59930;SDS011;45790;51.538;6.736;2023-05-10T14:13:34;9.27;;;4.10;;
59930;SDS011;45790;51.538;6.736;2023-05-10T14:16:02;8.02;;;4.18;;
59930;SDS011;45790;51.538;6.736;2023-05-10T14:18:27;10.05;;;4.55;;
59930;SDS011;45790;51.538;6.736;2023-05-10T14:20:53;7.68;;;4.68;;
59930;SDS011;45790;51.538;6.736;2023-05-10T14:23:21;8.77;;;5.03;;
59930;SDS011;45790;51.538;6.736;2023-05-10T14:25:49;6.88;;;4.50;;
59930;SDS011;45790;51.538;6.736;2023-05-10T14:28:15;7.05;;;5.00;;
59930;SDS011;45790;51.538;6.736;2023-05-10T14:30:45;6.57;;;5.50;;
59930;SDS011;45790;51.538;6.736;2023-05-10T14:33:16;9.20;;;5.22;;
59930;SDS011;45790;51.538;6.736;2023-05-10T14:35:49;7.13;;;4.72;;
59930;SDS011;45790;51.538;6.736;2023-05-10T14:38:18;8.32;;;5.28;;
59930;SDS011;45790;51.538;6.736;2023-05-10T14:40:46;8.35;;;4.75;;
59930;SDS011;45790;51.538;6.736;2023-05-10T14:43:12;9.95;;;5.90;;
59930;SDS011;45790;51.538;6.736;2023-05-10T14:45:46;8.57;;;5.60;;
59930;SDS011;45790;51.538;6.736;2023-05-10T14:48:15;9.80;;;5.93;;
59930;SDS011;45790;51.538;6.736;2023-05-10T14:50:47;11.07;;;6.65;;
59930;SDS011;45790;51.538;6.736;2023-05-10T14:53:14;9.40;;;6.38;;
59930;SDS011;45790;51.538;6.736;2023-05-10T14:55:46;8.90;;;6.82;;
59930;SDS011;45790;51.538;6.736;2023-05-10T14:58:11;8.57;;;6.57;;
59930;SDS011;45790;51.538;6.736;2023-05-10T15:00:37;9.55;;;7.35;;
59930;SDS011;45790;51.538;6.736;2023-05-10T15:03:02;11.35;;;7.70;;
59930;SDS011;45790;51.538;6.736;2023-05-10T15:05:28;12.25;;;7.13;;
59930;SDS011;45790;51.538;6.736;2023-05-10T15:07:53;12.27;;;8.45;;